createdAt,value
2022-12-18T00:01:06.861Z,22.05
2022-12-18T00:03:34.759Z,22.03
2022-12-18T00:06:01.309Z,21.98
2022-12-18T00:08:27.734Z,21.92
2022-12-18T00:10:54.143Z,21.91
2022-12-18T00:13:26.222Z,21.86
2022-12-18T00:15:54.362Z,21.82
2022-12-18T00:18:23.209Z,21.79
2022-12-18T00:20:49.641Z,21.77
2022-12-18T00:23:16.076Z,21.73
2022-12-18T00:25:42.484Z,21.72
2022-12-18T00:28:09.179Z,21.72
2022-12-18T00:30:35.573Z,21.71
2022-12-18T00:33:02.020Z,21.68
2022-12-18T00:35:28.486Z,21.66
2022-12-18T00:37:54.949Z,21.63
2022-12-18T00:40:21.346Z,21.60
2022-12-18T00:42:56.327Z,21.58
2022-12-18T00:45:32.793Z,21.56
2022-12-18T00:47:59.350Z,21.53
2022-12-18T00:50:25.821Z,21.51
2022-12-18T00:52:52.391Z,21.48
2022-12-18T00:55:18.854Z,21.46
2022-12-18T00:57:45.396Z,21.43
2022-12-18T01:00:13.649Z,21.39
2022-12-18T01:02:40.453Z,21.32
2022-12-18T01:05:07.432Z,21.34
2022-12-18T01:07:33.924Z,21.35
2022-12-18T01:10:00.383Z,21.34
2022-12-18T01:12:27.107Z,21.29
2022-12-18T01:14:53.545Z,21.28
2022-12-18T01:17:20.259Z,21.23
2022-12-18T01:19:46.711Z,21.22
2022-12-18T01:22:13.175Z,21.19
2022-12-18T01:24:39.616Z,21.14
2022-12-18T01:27:06.165Z,21.12
2022-12-18T01:29:32.678Z,21.10
2022-12-18T01:31:59.212Z,21.07
2022-12-18T01:34:25.718Z,21.04
2022-12-18T01:36:53.109Z,21.03
2022-12-18T01:39:19.577Z,21.03
2022-12-18T01:42:04.596Z,21.06
2022-12-18T01:44:55.091Z,21.05
2022-12-18T01:47:24.895Z,21.04
2022-12-18T01:49:51.461Z,21.01
2022-12-18T01:52:17.909Z,20.97
2022-12-18T01:54:44.679Z,20.94
2022-12-18T01:57:11.132Z,20.92
2022-12-18T01:59:37.617Z,20.90
2022-12-18T02:02:04.400Z,20.86
2022-12-18T02:04:30.965Z,20.83
2022-12-18T02:07:22.278Z,20.82
2022-12-18T02:09:51.604Z,20.78
2022-12-18T02:12:20.541Z,20.78
2022-12-18T02:15:00.231Z,20.77
2022-12-18T02:17:36.476Z,20.77
2022-12-18T02:20:32.585Z,20.75
2022-12-18T02:23:26.448Z,20.73
2022-12-18T02:26:10.944Z,20.68
2022-12-18T02:28:44.011Z,20.64
2022-12-18T02:31:12.805Z,20.62
2022-12-18T02:33:39.826Z,20.59
2022-12-18T02:36:06.683Z,20.57
2022-12-18T02:38:33.152Z,20.55
2022-12-18T02:40:59.630Z,20.52
2022-12-18T02:43:26.079Z,20.48
2022-12-18T02:45:57.297Z,20.47
2022-12-18T02:48:25.597Z,20.48
2022-12-18T02:50:57.691Z,20.46
2022-12-18T02:53:30.344Z,20.47
2022-12-18T02:56:16.827Z,20.43
2022-12-18T02:59:31.495Z,20.42
2022-12-18T03:02:24.721Z,20.39
2022-12-18T03:04:54.441Z,20.38
2022-12-18T03:07:24.355Z,20.37
2022-12-18T03:09:51.327Z,20.37
2022-12-18T03:12:25.179Z,20.34
2022-12-18T03:15:07.589Z,20.32
2022-12-18T03:17:34.234Z,20.33
2022-12-18T03:20:15.377Z,20.31
2022-12-18T03:22:42.491Z,20.32
2022-12-18T03:25:10.503Z,20.32
2022-12-18T03:27:38.281Z,20.29
2022-12-18T03:30:08.270Z,20.29
2022-12-18T03:32:40.391Z,20.24
2022-12-18T03:35:07.037Z,20.22
2022-12-18T03:37:33.658Z,20.21
2022-12-18T03:40:00.118Z,20.15
2022-12-18T03:42:48.549Z,20.13
2022-12-18T03:45:19.851Z,20.13
2022-12-18T03:47:54.645Z,20.13
2022-12-18T03:50:43.436Z,20.13
2022-12-18T03:53:42.823Z,20.09
2022-12-18T03:56:09.668Z,20.10
2022-12-18T03:58:36.445Z,20.09
2022-12-18T04:01:04.096Z,20.08
2022-12-18T04:03:30.956Z,20.05
2022-12-18T04:05:57.761Z,20.01
2022-12-18T04:08:24.717Z,19.99
2022-12-18T04:10:51.158Z,19.98
2022-12-18T04:13:34.995Z,19.98
2022-12-18T04:16:02.363Z,19.94
2022-12-18T04:18:29.103Z,19.94
2022-12-18T04:20:55.551Z,19.91
2022-12-18T04:23:22.501Z,19.88
2022-12-18T04:25:49.660Z,19.87
2022-12-18T04:28:16.120Z,19.85
2022-12-18T04:30:42.599Z,19.85
2022-12-18T04:33:10.745Z,19.81
2022-12-18T04:35:37.275Z,19.79
2022-12-18T04:38:03.743Z,19.77
2022-12-18T04:40:30.376Z,19.74
2022-12-18T04:42:56.881Z,19.72
2022-12-18T04:45:23.329Z,19.67
2022-12-18T04:47:49.769Z,19.66
2022-12-18T04:50:16.525Z,19.63
2022-12-18T04:52:42.974Z,19.61
2022-12-18T04:55:09.585Z,19.57
2022-12-18T04:57:36.028Z,19.55
2022-12-18T05:00:02.577Z,19.54
2022-12-18T05:02:29.108Z,19.51
2022-12-18T05:04:55.660Z,19.51
2022-12-18T05:07:22.118Z,19.58
2022-12-18T05:09:48.577Z,19.61
2022-12-18T05:12:15.216Z,19.63
2022-12-18T05:14:41.777Z,19.70
2022-12-18T05:17:08.592Z,19.71
2022-12-18T05:19:35.035Z,19.72
2022-12-18T05:22:02.367Z,19.73
2022-12-18T05:24:28.843Z,19.73
2022-12-18T05:26:55.288Z,19.72
2022-12-18T05:29:21.805Z,19.70
2022-12-18T05:31:48.310Z,19.69
2022-12-18T05:34:14.957Z,19.69
2022-12-18T05:36:41.412Z,19.69
2022-12-18T05:39:07.970Z,19.65
2022-12-18T05:41:34.476Z,19.64
2022-12-18T05:44:00.931Z,19.63
2022-12-18T05:46:27.504Z,19.58
2022-12-18T05:48:54.064Z,19.51
2022-12-18T05:51:21.396Z,19.47
2022-12-18T05:53:47.906Z,19.48
2022-12-18T05:56:16.651Z,19.47
2022-12-18T05:58:43.203Z,19.47
2022-12-18T06:01:12.297Z,19.46
2022-12-18T06:03:38.819Z,19.45
2022-12-18T06:06:05.686Z,19.50
2022-12-18T06:08:32.148Z,19.51
2022-12-18T06:10:58.809Z,19.61
2022-12-18T06:13:25.344Z,19.64
2022-12-18T06:15:51.878Z,19.69
2022-12-18T06:18:18.352Z,19.75
2022-12-18T06:20:44.793Z,19.77
2022-12-18T06:23:11.280Z,19.82
2022-12-18T06:25:40.865Z,19.86
2022-12-18T06:28:07.630Z,19.87
2022-12-18T06:30:34.134Z,19.92
2022-12-18T06:33:00.596Z,19.94
2022-12-18T06:35:27.041Z,19.97
2022-12-18T06:37:53.493Z,19.99
2022-12-18T06:40:20.055Z,19.98
2022-12-18T06:42:46.520Z,19.99
2022-12-18T06:45:13.065Z,19.97
2022-12-18T06:47:39.523Z,19.95
2022-12-18T06:50:06.574Z,19.92
2022-12-18T06:52:33.775Z,19.89
2022-12-18T06:55:00.669Z,19.87
2022-12-18T06:57:27.110Z,19.83
2022-12-18T06:59:53.579Z,19.80
2022-12-18T07:02:20.130Z,19.82
2022-12-18T07:04:46.657Z,19.83
2022-12-18T07:07:13.108Z,19.84
2022-12-18T07:09:39.573Z,19.84
2022-12-18T07:12:06.056Z,19.85
2022-12-18T07:14:32.525Z,19.83
2022-12-18T07:16:59.019Z,19.81
2022-12-18T07:19:26.545Z,19.81
2022-12-18T07:21:53.007Z,19.81
2022-12-18T07:24:19.521Z,19.86
2022-12-18T07:26:48.797Z,19.83
2022-12-18T07:29:15.258Z,19.83
2022-12-18T07:31:41.758Z,19.83
2022-12-18T07:34:12.450Z,19.80
2022-12-18T07:36:38.912Z,19.82
2022-12-18T07:39:05.434Z,19.82
2022-12-18T07:41:31.876Z,19.80
2022-12-18T07:43:58.356Z,19.84
2022-12-18T07:46:24.865Z,19.85
2022-12-18T07:48:51.349Z,19.85
2022-12-18T07:51:18.491Z,19.90
2022-12-18T07:53:45.237Z,19.97
2022-12-18T07:56:29.013Z,20.04
2022-12-18T07:58:57.520Z,20.06
2022-12-18T08:01:24.322Z,20.07
2022-12-18T08:03:52.189Z,20.06
2022-12-18T08:06:19.092Z,20.08
2022-12-18T08:08:45.534Z,20.10
2022-12-18T08:11:12.432Z,20.17
2022-12-18T08:13:39.536Z,20.35
2022-12-18T08:16:07.554Z,20.61
2022-12-18T08:18:34.608Z,20.77
2022-12-18T08:21:11.216Z,20.87
2022-12-18T08:23:42.643Z,20.90
2022-12-18T08:26:10.505Z,20.91
2022-12-18T08:28:36.984Z,20.86
2022-12-18T08:31:03.546Z,20.85
2022-12-18T08:33:31.141Z,20.85
2022-12-18T08:35:59.311Z,20.88
2022-12-18T08:38:25.822Z,20.98
2022-12-18T08:41:02.360Z,21.02
2022-12-18T08:43:47.510Z,21.10
2022-12-18T08:46:14.258Z,21.19
2022-12-18T08:48:40.764Z,21.24
2022-12-18T08:51:07.621Z,21.25
2022-12-18T08:53:36.185Z,21.25
2022-12-18T08:56:03.146Z,21.23
2022-12-18T08:58:30.058Z,21.16
2022-12-18T09:01:04.479Z,21.08
2022-12-18T09:03:31.840Z,21.01
2022-12-18T09:05:58.334Z,20.93
2022-12-18T09:08:24.817Z,20.92
2022-12-18T09:10:51.429Z,20.89
2022-12-18T09:13:18.025Z,21.03
2022-12-18T09:15:48.105Z,21.11
2022-12-18T09:18:15.276Z,21.18
2022-12-18T09:20:42.070Z,21.22
2022-12-18T09:23:08.672Z,21.27
2022-12-18T09:25:36.736Z,21.32
2022-12-18T09:28:04.033Z,21.34
2022-12-18T09:30:30.579Z,21.36
2022-12-18T09:32:57.098Z,21.34
2022-12-18T09:35:23.866Z,21.34
2022-12-18T09:37:50.314Z,21.39
2022-12-18T09:40:22.318Z,21.42
2022-12-18T09:42:55.322Z,21.47
2022-12-18T09:45:21.792Z,21.47
2022-12-18T09:47:48.276Z,21.47
2022-12-18T09:50:30.586Z,21.46
2022-12-18T09:52:58.838Z,21.50
2022-12-18T09:55:42.378Z,21.49
2022-12-18T09:58:33.190Z,21.49
2022-12-18T10:00:59.697Z,21.51
2022-12-18T10:03:26.141Z,21.52
2022-12-18T10:06:15.054Z,21.54
2022-12-18T10:08:52.702Z,21.55
2022-12-18T10:11:44.147Z,21.53
2022-12-18T10:14:22.130Z,21.56
2022-12-18T10:16:52.125Z,21.54
2022-12-18T10:19:33.774Z,21.63
2022-12-18T10:22:03.080Z,21.69
2022-12-18T10:25:15.065Z,21.68
2022-12-18T10:27:41.531Z,21.65
2022-12-18T10:30:16.008Z,21.68
2022-12-18T10:32:42.476Z,21.63
2022-12-18T10:35:36.637Z,21.63
2022-12-18T10:38:13.501Z,21.60
2022-12-18T10:40:59.773Z,21.56
2022-12-18T10:43:33.717Z,21.52
2022-12-18T10:46:06.790Z,21.52
2022-12-18T10:48:34.235Z,21.52
2022-12-18T10:51:16.087Z,21.56
2022-12-18T10:53:43.545Z,21.56
2022-12-18T10:56:10.017Z,21.53
2022-12-18T10:58:37.771Z,21.52
2022-12-18T11:01:11.771Z,21.51
2022-12-18T11:03:39.482Z,21.50
2022-12-18T11:06:13.177Z,21.48
2022-12-18T11:08:40.143Z,21.46
2022-12-18T11:11:17.135Z,21.44
2022-12-18T11:13:43.984Z,21.41
2022-12-18T11:16:19.761Z,21.37
2022-12-18T11:18:46.314Z,21.38
2022-12-18T11:21:13.585Z,21.44
2022-12-18T11:23:53.170Z,21.49
2022-12-18T11:26:19.691Z,21.54
2022-12-18T11:29:11.945Z,21.52
2022-12-18T11:31:38.616Z,21.53
2022-12-18T11:34:30.044Z,21.56
2022-12-18T11:36:56.955Z,21.57
2022-12-18T11:39:45.033Z,21.64
2022-12-18T11:42:33.707Z,21.63
2022-12-18T11:45:13.638Z,21.57
2022-12-18T11:47:40.609Z,21.61
2022-12-18T11:50:29.620Z,21.53
2022-12-18T11:52:59.295Z,21.55
2022-12-18T11:55:57.259Z,21.57
2022-12-18T11:58:47.201Z,21.57
2022-12-18T12:01:43.995Z,21.57
2022-12-18T12:04:57.100Z,21.56
2022-12-18T12:07:29.469Z,21.57
2022-12-18T12:10:14.894Z,21.59
2022-12-18T12:13:14.536Z,21.55
2022-12-18T12:16:05.468Z,21.53
2022-12-18T12:18:53.781Z,21.51
2022-12-18T12:21:35.146Z,21.47
2022-12-18T12:24:17.577Z,21.47
2022-12-18T12:27:21.319Z,21.51
2022-12-18T12:30:10.390Z,21.52
2022-12-18T12:32:55.236Z,21.53
2022-12-18T12:35:33.335Z,21.51
2022-12-18T12:38:35.243Z,21.43
2022-12-18T12:41:06.462Z,21.47
2022-12-18T12:43:47.615Z,21.60
2022-12-18T12:46:18.827Z,21.77
2022-12-18T12:48:52.425Z,21.92
2022-12-18T12:51:20.520Z,22.09
2022-12-18T12:53:47.171Z,22.15
2022-12-18T12:56:15.294Z,22.26
2022-12-18T12:58:57.556Z,22.36
2022-12-18T13:02:02.502Z,22.46
2022-12-18T13:04:47.166Z,22.63
2022-12-18T13:07:18.477Z,22.79
2022-12-18T13:10:17.731Z,22.87
2022-12-18T13:13:00.595Z,22.93
2022-12-18T13:15:38.271Z,22.97
2022-12-18T13:18:07.157Z,23.06
2022-12-18T13:20:34.732Z,23.16
2022-12-18T13:23:01.247Z,23.23
2022-12-18T13:25:32.844Z,23.27
2022-12-18T13:28:05.928Z,23.14
2022-12-18T13:30:33.005Z,23.13
2022-12-18T13:33:14.715Z,23.17
2022-12-18T13:35:42.769Z,23.19
2022-12-18T13:38:31.828Z,23.21
2022-12-18T13:41:24.417Z,23.19
2022-12-18T13:43:52.403Z,23.13
2022-12-18T13:46:30.061Z,23.11
2022-12-18T13:49:14.545Z,23.06
2022-12-18T13:51:44.452Z,23.03
2022-12-18T13:54:21.091Z,23.02
2022-12-18T13:56:48.232Z,23.06
2022-12-18T13:59:25.890Z,23.07
2022-12-18T14:02:06.572Z,23.06
2022-12-18T14:04:35.176Z,23.02
2022-12-18T14:07:06.516Z,23.00
2022-12-18T14:09:37.960Z,22.96
2022-12-18T14:12:24.620Z,22.93
2022-12-18T14:14:55.263Z,22.92
2022-12-18T14:17:21.918Z,22.93
2022-12-18T14:19:49.692Z,22.91
2022-12-18T14:22:21.367Z,22.92
2022-12-18T14:24:48.156Z,22.91
2022-12-18T14:27:24.497Z,22.88
2022-12-18T14:29:51.006Z,22.85
2022-12-18T14:32:19.285Z,22.84
2022-12-18T14:34:52.530Z,22.83
2022-12-18T14:37:23.122Z,22.81
2022-12-18T14:40:02.147Z,22.82
2022-12-18T14:42:31.043Z,22.84
2022-12-18T14:45:41.415Z,22.83
2022-12-18T14:48:39.074Z,22.82
2022-12-18T14:51:11.610Z,22.80
2022-12-18T14:53:52.068Z,22.75
2022-12-18T14:56:29.825Z,22.75
2022-12-18T14:59:00.080Z,22.69
2022-12-18T15:01:31.740Z,22.67
2022-12-18T15:03:59.356Z,22.67
2022-12-18T15:06:36.399Z,22.63
2022-12-18T15:09:05.445Z,22.64
2022-12-18T15:11:41.126Z,22.61
2022-12-18T15:14:32.373Z,22.57
2022-12-18T15:16:59.826Z,22.53
2022-12-18T15:19:40.860Z,22.48
2022-12-18T15:22:35.096Z,22.50
2022-12-18T15:25:01.674Z,22.56
2022-12-18T15:27:36.551Z,22.54
2022-12-18T15:30:09.000Z,22.60
2022-12-18T15:32:37.136Z,22.68
2022-12-18T15:35:09.474Z,22.71
2022-12-18T15:37:35.961Z,22.86
2022-12-18T15:40:03.198Z,22.87
2022-12-18T15:42:48.442Z,22.89
2022-12-18T15:45:16.060Z,22.91
2022-12-18T15:47:43.444Z,22.96
2022-12-18T15:50:09.914Z,23.06
2022-12-18T15:52:44.202Z,23.11
2022-12-18T15:55:33.711Z,23.03
2022-12-18T15:58:00.193Z,23.04
2022-12-18T16:00:26.697Z,23.02
2022-12-18T16:02:53.417Z,23.03
2022-12-18T16:05:21.076Z,23.12
2022-12-18T16:07:47.541Z,23.09
2022-12-18T16:10:14.217Z,23.12
2022-12-18T16:12:40.668Z,23.11
2022-12-18T16:15:07.768Z,23.11
2022-12-18T16:17:35.401Z,23.18
2022-12-18T16:20:02.500Z,23.23
2022-12-18T16:22:30.081Z,23.19
2022-12-18T16:24:56.770Z,23.09
2022-12-18T16:27:23.451Z,23.20
2022-12-18T16:29:49.924Z,23.14
2022-12-18T16:32:20.434Z,23.17
2022-12-18T16:34:47.096Z,23.23
2022-12-18T16:37:14.326Z,23.28
2022-12-18T16:39:40.945Z,23.23
2022-12-18T16:42:17.782Z,23.16
2022-12-18T16:44:44.834Z,23.12
2022-12-18T16:47:13.305Z,23.17
2022-12-18T16:49:41.919Z,23.12
2022-12-18T16:52:08.413Z,23.13
2022-12-18T16:54:36.524Z,23.11
2022-12-18T16:57:03.503Z,23.11
2022-12-18T16:59:30.043Z,23.17
2022-12-18T17:01:57.474Z,23.24
2022-12-18T17:04:24.130Z,23.26
2022-12-18T17:06:52.021Z,23.30
2022-12-18T17:09:25.567Z,23.24
2022-12-18T17:11:52.560Z,23.26
2022-12-18T17:14:20.120Z,23.32
2022-12-18T17:16:46.867Z,23.52
2022-12-18T17:19:17.052Z,23.70
2022-12-18T17:21:44.642Z,23.77
2022-12-18T17:24:11.110Z,23.89
2022-12-18T17:26:37.632Z,23.90
2022-12-18T17:29:04.085Z,23.96
2022-12-18T17:31:30.705Z,23.97
2022-12-18T17:33:57.765Z,23.99
2022-12-18T17:36:24.623Z,24.01
2022-12-18T17:38:52.589Z,24.08
2022-12-18T17:41:19.110Z,24.10
2022-12-18T17:43:51.113Z,24.06
2022-12-18T17:46:17.591Z,24.12
2022-12-18T17:48:44.085Z,21.79
2022-12-18T17:51:11.023Z,19.59
2022-12-18T17:53:39.600Z,18.48
2022-12-18T17:56:07.584Z,18.86
2022-12-18T17:58:35.846Z,20.91
2022-12-18T18:01:02.597Z,22.19
2022-12-18T18:03:32.770Z,22.54
2022-12-18T18:05:59.848Z,22.81
2022-12-18T18:08:26.417Z,23.02
2022-12-18T18:10:53.006Z,23.16
2022-12-18T18:13:46.911Z,23.19
2022-12-18T18:16:13.855Z,23.24
2022-12-18T18:18:40.419Z,23.23
2022-12-18T18:21:08.105Z,23.22
2022-12-18T18:23:34.930Z,23.27
2022-12-18T18:26:05.058Z,23.33
2022-12-18T18:28:31.649Z,23.32
2022-12-18T18:30:58.170Z,23.38
2022-12-18T18:33:24.839Z,23.42
2022-12-18T18:35:54.167Z,23.42
2022-12-18T18:38:21.130Z,23.53
2022-12-18T18:40:47.681Z,23.58
2022-12-18T18:43:14.130Z,23.48
2022-12-18T18:45:40.855Z,23.44
2022-12-18T18:48:09.381Z,23.42
2022-12-18T18:50:35.845Z,23.45
2022-12-18T18:53:02.308Z,23.53
2022-12-18T18:55:28.785Z,23.53
2022-12-18T18:57:55.254Z,23.48
2022-12-18T19:00:21.793Z,23.40
2022-12-18T19:02:48.453Z,23.45
2022-12-18T19:05:15.740Z,23.46
2022-12-18T19:07:42.180Z,23.62
2022-12-18T19:10:09.075Z,23.68
2022-12-18T19:12:54.314Z,23.76
2022-12-18T19:15:21.526Z,23.68
2022-12-18T19:17:48.200Z,23.63
2022-12-18T19:20:15.560Z,23.61
2022-12-18T19:22:42.041Z,23.63
2022-12-18T19:25:09.848Z,23.59
2022-12-18T19:27:38.823Z,23.50
2022-12-18T19:30:05.717Z,23.45
2022-12-18T19:32:32.469Z,23.40
2022-12-18T19:34:59.086Z,23.37
2022-12-18T19:37:26.289Z,23.34
2022-12-18T19:39:52.799Z,23.25
2022-12-18T19:42:25.044Z,23.29
2022-12-18T19:44:54.729Z,23.26
2022-12-18T19:47:21.168Z,23.30
2022-12-18T19:49:47.719Z,23.23
2022-12-18T19:52:16.048Z,23.20
2022-12-18T19:54:42.625Z,23.17
2022-12-18T19:57:11.423Z,23.12
2022-12-18T19:59:38.001Z,23.03
2022-12-18T20:02:05.602Z,22.83
2022-12-18T20:04:32.268Z,22.81
2022-12-18T20:06:58.949Z,22.76
2022-12-18T20:09:25.484Z,22.73
2022-12-18T20:11:53.153Z,22.68
2022-12-18T20:14:23.423Z,22.62
2022-12-18T20:16:50.643Z,22.62
2022-12-18T20:19:17.369Z,22.42
2022-12-18T20:21:44.186Z,22.43
2022-12-18T20:24:10.666Z,22.51
2022-12-18T20:26:37.165Z,22.57
2022-12-18T20:29:03.607Z,22.63
2022-12-18T20:31:30.119Z,22.67
2022-12-18T20:34:00.351Z,22.75
2022-12-18T20:36:29.504Z,22.78
2022-12-18T20:39:00.565Z,22.79
2022-12-18T20:41:37.395Z,22.81
2022-12-18T20:44:20.621Z,22.77
2022-12-18T20:46:49.104Z,22.85
2022-12-18T20:49:15.551Z,22.89
2022-12-18T20:51:42.029Z,22.91
2022-12-18T20:54:11.778Z,22.95
2022-12-18T20:56:38.581Z,22.97
2022-12-18T20:59:05.058Z,22.99
2022-12-18T21:01:31.589Z,22.99
2022-12-18T21:03:59.118Z,22.99
2022-12-18T21:06:25.871Z,22.96
2022-12-18T21:08:52.397Z,22.86
2022-12-18T21:11:40.326Z,22.80
2022-12-18T21:14:09.681Z,22.82
2022-12-18T21:16:36.423Z,22.80
2022-12-18T21:19:02.942Z,22.76
2022-12-18T21:21:29.515Z,22.62
2022-12-18T21:23:58.896Z,22.70
2022-12-18T21:26:26.491Z,22.59
2022-12-18T21:28:57.017Z,22.71
2022-12-18T21:31:24.698Z,22.80
2022-12-18T21:33:51.921Z,22.78
2022-12-18T21:36:21.428Z,22.78
2022-12-18T21:38:48.107Z,22.77
2022-12-18T21:41:41.715Z,22.78
2022-12-18T21:44:10.153Z,22.76
2022-12-18T21:46:41.698Z,22.75
2022-12-18T21:49:08.504Z,22.76
2022-12-18T21:51:35.096Z,22.73
2022-12-18T21:54:01.761Z,22.69
2022-12-18T21:56:47.476Z,22.68
2022-12-18T21:59:14.753Z,22.67
2022-12-18T22:01:41.413Z,22.70
2022-12-18T22:04:08.057Z,22.72
2022-12-18T22:06:34.624Z,22.73
2022-12-18T22:09:01.073Z,22.79
2022-12-18T22:11:27.526Z,22.74
2022-12-18T22:13:54.309Z,22.88
2022-12-18T22:16:21.165Z,23.03
2022-12-18T22:18:47.708Z,23.12
2022-12-18T22:21:29.594Z,23.21
2022-12-18T22:24:00.869Z,23.20
2022-12-18T22:26:28.525Z,23.24
2022-12-18T22:29:13.380Z,23.32
2022-12-18T22:31:39.939Z,23.29
2022-12-18T22:34:06.722Z,23.26
2022-12-18T22:36:39.618Z,23.11
2022-12-18T22:39:14.776Z,22.71
2022-12-18T22:41:41.421Z,22.59
2022-12-18T22:44:07.857Z,22.57
2022-12-18T22:46:38.843Z,22.53
2022-12-18T22:49:05.357Z,22.51
2022-12-18T22:51:32.307Z,22.48
2022-12-18T22:53:58.934Z,22.47
2022-12-18T22:56:25.464Z,22.41
2022-12-18T22:58:52.261Z,22.37
2022-12-18T23:01:21.212Z,22.34
2022-12-18T23:03:47.868Z,22.32
2022-12-18T23:06:14.502Z,22.28
2022-12-18T23:08:41.002Z,22.24
2022-12-18T23:11:07.590Z,22.22
2022-12-18T23:13:34.119Z,22.19
2022-12-18T23:16:00.627Z,22.19
2022-12-18T23:18:27.116Z,22.16
2022-12-18T23:20:53.568Z,22.15
2022-12-18T23:23:20.896Z,22.10
2022-12-18T23:25:47.335Z,22.08
2022-12-18T23:28:15.084Z,22.05
2022-12-18T23:30:41.543Z,22.02
2022-12-18T23:33:08.224Z,22.02
2022-12-18T23:35:34.701Z,22.00
2022-12-18T23:38:01.232Z,21.97
2022-12-18T23:40:29.261Z,21.94
2022-12-18T23:42:55.754Z,21.95
2022-12-18T23:45:22.262Z,21.94
2022-12-18T23:47:51.318Z,21.92
2022-12-18T23:50:17.921Z,21.89
2022-12-18T23:52:44.363Z,21.86
2022-12-18T23:55:10.816Z,21.82
2022-12-18T23:57:37.271Z,21.79
